KMAI

Marianna Municipal Airport

Marianna, Florida, USA
METAR KMAI 161353Z AUTO 34005KT 10SM CLR 03/01 A3027 RMK AO2 SLP251 T00330006
Observed Flight Rules
Nov-16 @ 13:53 UTC (3 hours ago) Visual Flight Rules
Wind Visibility Clouds
340° at 5 knots 10 miles
  • Clear skies
Temperatures Readings
Current 3°C / 37°F
Dewpoint 1°C / 34°F
Humidity 87%
Altimeter 30.27" Hg
Pressure 1025.1 hPa
Elevation 32
METAR KMAI 161353Z AUTO 34005KT 10SM CLR 03/01 A3027 RMK AO2 SLP251 T00330006
Observed Flight Rules
Nov-16 @ 13:53 UTC
(3 hours ago)
VFR
Wind Visibility
340° at 5 knots 10 miles
Clouds
  • Clear skies
Temperature Dewpoint
3°C / 37°F 1°C / 34°F
Humidity Altimeter Pressure
87% 30.27" Hg 1025.1 hPa